Last 24 Hours

Coyote Canyon

10 Minute Data | America/Los_Angeles
as of 9/4/26 3:57 AM PDT
Date & Time Temp (°F) Dew Pt (°F) RH (%) Wind Spd (mph) Wind Dir (°) Wind Gust (mph) Wind Gst Dir (°) Daily Max Temp (°F) Daily Min Temp (°F)
9/4/26 - 0350 57.1 46.6 68 15.4 NW | 304 19.6 WNW | 302 60.3 56.1
9/4/26 - 0340 57.8 46.4 66 16.0 NW | 304 21.7 WNW | 294 60.3 56.1
9/4/26 - 0330 58.1 46.3 65 16.4 NW | 306 23.2 WNW | 298 60.3 56.1
9/4/26 - 0320 58.2 46.6 65 15.7 NW | 308 21.0 WNW | 302 60.3 56.1
9/4/26 - 0310 58.1 46.6 65 16.2 NW | 308 20.9 NW | 305 60.3 56.1
9/4/26 - 0300 57.9 46.2 65 16.7 NW | 311 20.5 NW | 307 60.3 56.1
9/4/26 - 0250 58.5 45.3 61 16.6 NW | 314 19.6 NW | 322 60.3 56.1
9/4/26 - 0240 58.8 44.9 60 16.8 NW | 318 20.7 NW | 308 60.3 56.1
9/4/26 - 0230 58.8 44.2 58 16.6 NW | 314 19.4 NW | 319 60.3 56.1
9/4/26 - 0220 58.0 43.9 59 17.4 NW | 309 21.3 NW | 313 60.3 56.1
9/4/26 - 0210 57.2 44.4 62 16.0 WNW | 303 20.0 NW | 314 60.3 56.1
9/4/26 - 0200 56.8 44.6 63 16.5 WNW | 298 20.0 WNW | 296 60.3 56.1
9/4/26 - 0150 56.2 44.6 65 15.3 WNW | 299 18.4 WNW | 301 60.3 56.1
9/4/26 - 0140 56.7 44.8 64 15.2 WNW | 300 19.1 WNW | 294 60.3 56.1
9/4/26 - 0130 57.5 44.7 62 14.5 WNW | 303 18.9 WNW | 303 60.3 57.2
9/4/26 - 0120 59.3 43.6 56 11.6 NW | 308 14.5 WNW | 300 60.3 58.1
9/4/26 - 0110 60.0 43.6 55 11.0 NW | 312 13.8 NW | 311 60.3 59.5
9/4/26 - 0100 59.8 44.4 56 11.4 NW | 319 13.3 NW | 322 78.2 56.3
9/4/26 - 0050 59.1 44.9 59 12.3 NW | 326 16.2 NW | 325 78.2 56.3
9/4/26 - 0040 57.5 46.0 65 10.8 NNW | 332 15.4 NNW | 329 78.2 56.3
9/4/26 - 0030 57.5 46.4 66 10.1 NW | 325 15.8 NW | 312 78.2 56.3
9/4/26 - 0020 58.4 46.8 65 10.8 NW | 310 15.9 WNW | 298 78.2 56.3
9/4/26 - 0010 58.4 47.2 66 14.1 WNW | 302 17.5 WNW | 296 78.2 56.3
9/4/26 - 0000 58.3 47.4 67 15.3 WNW | 296 19.0 WNW | 295 78.2 56.3
9/3/26 - 2350 57.9 47.6 68 14.5 WNW | 297 19.1 WNW | 301 78.2 56.3
9/3/26 - 2340 58.4 47.6 67 14.6 NW | 305 21.7 WNW | 297 78.2 56.3
9/3/26 - 2330 58.7 47.2 65 14.5 NW | 306 19.7 NW | 305 78.2 56.3
9/3/26 - 2320 58.8 46.6 64 13.4 NW | 311 17.9 NW | 315 78.2 56.3
9/3/26 - 2310 59.2 46.9 64 14.7 NW | 307 21.2 WNW | 302 78.2 56.3
9/3/26 - 2300 59.3 47.8 65 19.5 WNW | 300 26.3 WNW | 299 78.2 56.3
9/3/26 - 2250 59.1 48.3 67 22.9 WNW | 298 27.8 WNW | 300 78.2 56.3
9/3/26 - 2240 58.7 48.9 70 21.5 WNW | 299 26.6 WNW | 293 78.2 56.3
9/3/26 - 2230 58.2 48.7 70 19.2 WNW | 299 24.6 WNW | 299 78.2 56.3
9/3/26 - 2220 58.6 48.3 69 17.5 WNW | 299 21.9 WNW | 297 78.2 56.3
9/3/26 - 2210 59.0 47.8 66 15.8 WNW | 300 19.7 WNW | 300 78.2 56.3
9/3/26 - 2200 59.7 47.0 63 12.8 NW | 304 16.9 WNW | 299 78.2 56.3
9/3/26 - 2150 60.4 45.7 58 12.8 NW | 306 18.7 NW | 309 78.2 56.3
9/3/26 - 2140 60.8 44.6 55 12.5 WNW | 298 17.1 WNW | 293 78.2 56.3
9/3/26 - 2130 61.0 45.7 57 12.5 WNW | 294 16.5 WNW | 289 78.2 56.3
9/3/26 - 2120 61.6 46.7 58 14.2 WNW | 297 19.9 WNW | 297 78.2 56.3
9/3/26 - 2110 61.7 46.6 58 15.9 WNW | 298 20.2 WNW | 303 78.2 56.3
9/3/26 - 2100 62.0 45.6 55 15.7 WNW | 295 20.3 WNW | 288 78.2 56.3
9/3/26 - 2050 62.3 45.3 54 15.3 WNW | 298 19.5 WNW | 300 78.2 56.3
9/3/26 - 2040 62.6 44.3 51 14.0 WNW | 299 19.4 WNW | 293 78.2 56.3
9/3/26 - 2030 62.9 44.2 51 16.2 WNW | 295 20.0 W | 273 78.2 56.3
9/3/26 - 2020 63.3 44.6 50 17.5 WNW | 296 22.9 WNW | 293 78.2 56.3
9/3/26 - 2010 63.6 45.1 51 16.6 WNW | 299 21.0 WNW | 298 78.2 56.3
9/3/26 - 2000 63.8 45.9 52 15.4 WNW | 299 21.2 WNW | 285 78.2 56.3
9/3/26 - 1950 64.2 47.2 54 13.7 WNW | 300 18.5 WNW | 298 78.2 56.3
9/3/26 - 1940 64.7 47.8 54 12.5 WNW | 292 19.0 WNW | 282 78.2 56.3
9/3/26 - 1930 65.6 47.2 51 12.8 WNW | 286 18.3 WNW | 286 78.2 56.3
9/3/26 - 1920 66.4 46.6 49 15.8 W | 275 21.8 WNW | 282 78.2 56.3
9/3/26 - 1910 66.8 47.5 50 17.8 W | 277 23.8 W | 269 78.2 56.3
9/3/26 - 1900 67.8 49.0 51 17.1 W | 277 22.7 W | 273 78.2 56.3
9/3/26 - 1850 68.9 47.8 47 16.6 W | 274 21.8 W | 276 78.2 56.3
9/3/26 - 1840 69.5 47.4 45 16.0 W | 279 20.8 W | 270 78.2 56.3
9/3/26 - 1830 70.2 46.5 43 18.3 WNW | 290 23.3 WNW | 293 78.2 56.3
9/3/26 - 1820 70.9 46.4 41 17.8 WNW | 296 23.6 WNW | 298 78.2 56.3
9/3/26 - 1810 71.6 46.5 41 16.1 WNW | 295 22.3 WNW | 297 78.2 56.3
9/3/26 - 1800 71.8 46.5 40 15.1 WNW | 291 22.2 WNW | 295 78.2 56.3
9/3/26 - 1750 72.2 46.6 40 15.5 WNW | 295 23.2 WNW | 298 78.2 56.3
9/3/26 - 1740 72.5 46.5 40 17.5 WNW | 290 23.0 WNW | 291 78.2 56.3
9/3/26 - 1730 72.9 46.9 39 17.6 WNW | 296 23.7 WNW | 291 78.2 56.3
9/3/26 - 1720 73.3 47.0 39 17.7 WNW | 291 25.0 WNW | 298 78.2 56.3
9/3/26 - 1710 73.7 46.6 38 16.9 WNW | 290 23.4 WNW | 286 78.2 56.3
9/3/26 - 1700 74.5 46.3 37 16.6 WNW | 292 23.8 WNW | 288 78.2 56.3
9/3/26 - 1650 74.8 45.6 35 16.7 WNW | 291 23.9 WNW | 291 78.2 56.3
9/3/26 - 1640 75.3 44.3 33 15.9 WNW | 295 24.6 WNW | 296 78.2 56.3
9/3/26 - 1630 76.2 42.4 30 13.8 WNW | 288 21.9 WNW | 283 78.2 56.3
9/3/26 - 1620 75.7 41.8 30 16.0 WNW | 285 24.2 W | 270 78.2 56.3
9/3/26 - 1610 76.4 41.4 29 13.9 WNW | 287 21.8 WNW | 290 78.2 56.3
9/3/26 - 1600 76.5 41.3 28 13.8 W | 281 22.9 WNW | 288 78.2 56.3
9/3/26 - 1550 76.4 40.1 27 13.6 WNW | 298 22.7 WNW | 288 78.2 56.3
9/3/26 - 1540 76.8 37.1 24 14.1 WNW | 291 21.7 WNW | 297 78.2 56.3
9/3/26 - 1530 76.5 38.4 25 13.9 WNW | 293 21.9 WNW | 291 78.2 56.3
9/3/26 - 1520 76.2 39.2 26 14.7 WNW | 291 21.6 W | 278 78.2 56.3
9/3/26 - 1510 76.1 39.0 26 17.6 WNW | 292 31.1 WNW | 287 78.2 56.3
9/3/26 - 1500 76.2 40.0 27 16.5 WNW | 294 25.7 WNW | 285 78.2 56.3
9/3/26 - 1450 76.8 40.1 27 16.7 WNW | 294 24.3 WNW | 296 78.2 56.3
9/3/26 - 1440 76.5 38.2 25 16.1 WNW | 293 24.3 WNW | 298 78.0 56.3
9/3/26 - 1430 76.5 38.4 25 15.3 W | 275 23.3 WSW | 256 78.0 56.3
9/3/26 - 1420 76.5 38.4 25 15.4 W | 278 26.4 WNW | 292 78.0 56.3
9/3/26 - 1410 76.7 37.8 25 15.5 WNW | 297 27.0 WNW | 295 78.0 56.3
9/3/26 - 1400 76.6 37.8 25 15.7 WNW | 288 23.5 WNW | 297 78.0 56.3
9/3/26 - 1350 76.7 36.0 23 15.4 W | 274 23.8 WNW | 292 78.0 56.3
9/3/26 - 1340 76.4 36.0 23 13.6 WNW | 283 26.2 WNW | 299 77.6 56.3
9/3/26 - 1330 76.1 35.5 23 15.5 WNW | 283 23.6 WNW | 292 77.1 56.3
9/3/26 - 1320 75.9 35.9 23 16.7 WNW | 290 24.7 WNW | 283 77.1 56.3
9/3/26 - 1310 76.2 35.2 23 15.2 W | 280 24.8 WNW | 288 77.1 56.3
9/3/26 - 1300 75.7 34.1 22 14.4 WNW | 290 24.1 WNW | 294 76.8 56.3
9/3/26 - 1250 75.8 32.9 21 12.9 W | 280 22.4 WNW | 294 76.8 56.3
9/3/26 - 1240 75.6 32.7 21 14.0 W | 281 22.9 W | 272 76.6 56.3
9/3/26 - 1230 75.1 32.0 21 14.3 WNW | 294 27.4 W | 281 76.4 56.3
9/3/26 - 1220 74.9 31.0 20 14.8 WNW | 301 23.2 NW | 310 76.4 56.3
9/3/26 - 1210 74.6 30.1 19 12.5 WNW | 297 23.3 WNW | 287 76.4 56.3
9/3/26 - 1200 74.3 29.9 19 15.0 WNW | 300 23.8 WNW | 299 76.4 56.3
9/3/26 - 1150 74.3 29.9 19 13.8 W | 270 23.3 W | 281 76.4 56.3
9/3/26 - 1140 75.2 29.6 19 10.9 W | 271 19.1 W | 280 76.4 56.3
9/3/26 - 1130 74.4 27.9 18 12.4 W | 266 21.2 W | 267 75.6 56.3
9/3/26 - 1120 74.6 26.6 17 11.6 W | 274 20.5 W | 275 75.6 56.3
9/3/26 - 1110 74.1 24.5 16 13.6 W | 274 23.7 WNW | 285 74.8 56.3
9/3/26 - 1100 73.1 22.6 15 15.5 WNW | 290 26.9 WNW | 285 74.1 56.3
9/3/26 - 1050 73.2 22.2 15 16.3 WNW | 291 23.2 WNW | 294 74.1 56.3
9/3/26 - 1040 72.2 26.0 18 14.9 NW | 305 22.1 WNW | 287 72.9 56.3
9/3/26 - 1030 71.4 26.4 19 15.6 NW | 309 23.0 NW | 308 72.1 56.3
9/3/26 - 1020 71.0 26.7 19 14.4 NW | 308 21.8 NW | 309 71.5 56.3
9/3/26 - 1010 70.7 27.5 20 15.7 WNW | 298 24.7 NW | 308 71.2 56.3
9/3/26 - 1000 70.4 28.1 20 15.7 WNW | 299 23.8 NW | 304 70.9 56.3
9/3/26 - 0950 69.5 27.3 21 16.7 NW | 308 23.4 NW | 318 70.8 56.3
9/3/26 - 0940 68.8 26.1 20 17.0 WNW | 296 23.3 WNW | 302 68.9 56.3
9/3/26 - 0930 68.2 27.2 21 17.0 WNW | 300 26.1 WNW | 290 68.6 56.3
9/3/26 - 0920 67.7 26.3 21 18.5 WNW | 297 26.7 WNW | 295 68.0 56.3
9/3/26 - 0910 67.4 24.4 20 17.3 WNW | 297 24.6 WNW | 294 67.9 56.3
9/3/26 - 0900 66.8 21.9 18 16.9 WNW | 299 22.9 WNW | 294 67.5 56.3
9/3/26 - 0850 66.1 20.4 17 17.2 WNW | 299 22.0 WNW | 298 66.3 56.3
9/3/26 - 0840 65.8 16.9 15 16.7 WNW | 297 22.4 WNW | 292 66.0 56.3
9/3/26 - 0830 65.5 13.7 13 14.2 WNW | 299 19.6 WNW | 299 66.0 56.3
9/3/26 - 0820 65.1 12.3 13 16.0 WNW | 296 20.6 WNW | 290 65.3 56.3
9/3/26 - 0810 64.6 10.5 12 15.6 WNW | 298 20.6 WNW | 294 64.9 56.3
9/3/26 - 0800 64.0 8.2 11 16.8 WNW | 300 20.8 WNW | 296 64.3 56.3
9/3/26 - 0750 63.1 6.3 10 14.3 WNW | 299 18.1 WNW | 302 63.6 56.3
9/3/26 - 0740 62.0 8.1 12 14.3 WNW | 301 18.1 NW | 304 62.3 56.3
9/3/26 - 0730 61.9 8.3 12 14.0 WNW | 300 17.4 WNW | 302 62.1 56.3
9/3/26 - 0720 61.1 10.8 14 13.2 NW | 304 17.2 WNW | 299 61.6 56.3
9/3/26 - 0710 60.3 14.0 16 13.1 NW | 305 17.0 NW | 312 60.7 56.3
9/3/26 - 0700 59.8 15.6 18 11.7 NW | 304 14.5 WNW | 299 60.2 56.3
9/3/26 - 0650 59.5 17.4 19 11.6 NW | 305 14.7 NW | 318 60.1 56.3
9/3/26 - 0640 59.8 18.3 20 12.0 NW | 304 15.1 NW | 324 60.1 56.3
9/3/26 - 0630 59.8 19.1 20 12.0 NW | 305 15.4 NW | 306 60.0 56.3
9/3/26 - 0620 59.6 20.5 22 11.8 NW | 307 14.9 NW | 308 60.0 56.3
9/3/26 - 0610 59.2 22.2 24 12.6 WNW | 303 15.3 NW | 308 60.0 56.3
9/3/26 - 0600 59.2 22.5 24 13.3 WNW | 301 15.9 NW | 305 60.0 56.3
9/3/26 - 0550 59.3 22.2 24 12.8 WNW | 303 16.4 WNW | 300 60.0 56.3
9/3/26 - 0540 59.8 22.9 24 13.1 NW | 306 16.4 NW | 308 60.0 56.3
9/3/26 - 0530 59.8 23.6 25 13.0 NW | 308 15.9 NW | 306 59.8 56.3
9/3/26 - 0520 59.4 25.2 27 12.7 NW | 308 15.7 NW | 305 59.7 56.3
9/3/26 - 0510 59.5 25.8 27 12.7 NW | 308 16.5 NW | 306 59.7 56.3
9/3/26 - 0500 59.3 27.3 29 13.0 NW | 310 16.0 NW | 304 59.6 56.3
9/3/26 - 0450 59.1 26.9 29 12.2 NW | 309 16.2 NW | 316 59.3 56.3
9/3/26 - 0440 58.8 24.6 27 12.1 NW | 307 15.4 WNW | 303 59.3 56.3
9/3/26 - 0430 59.0 24.5 26 13.0 NW | 309 17.0 NW | 307 59.3 56.3
9/3/26 - 0420 58.7 26.1 28 14.3 NW | 308 19.1 NW | 312 58.9 56.3
9/3/26 - 0410 58.5 27.3 30 15.2 NW | 308 19.3 NW | 307 58.9 56.3
9/3/26 - 0400 58.1 28.6 32 14.1 NW | 306 18.7 NW | 305 58.9 56.3
9/3/26 - 0350 57.9 30.5 35 13.2 NW | 304 17.2 WNW | 302 58.9 56.3
Max 76.8 49.0 70 22.9 - 31.1 - 78.2 59.5
Avg 65.9 36.2 38 14.9 - 20.9 - - -
Min 56.2 6.3 10 10.1 - 13.3 - 58.9 56.1